Accueil
METAR-TAF:

METAR-TAF

Aéroports :

Ancône, Italie

latitude: 43-37N, longitude: 013-22E, altitude: 12 m

Observation

Le bulletin a été fait il y a 30 minutes, à 06:50 UTC
Vent 2 kt de ouest/sud-ouest
Température 7°C
Humidité 93%
Pression 1022 hPa
Visibilité 10 km ou plus

METAR: LIPY 300650Z AUTO 25002KT 9999 NCD 07/06 Q1022

Heure: 08:20 (07:20 UTC)

Prévision

Le bulletin a été fait il y a 2 heures et 20 minutes, à 05:00 UTC
Prévision valable du 30 à 06 UTC au 01 à 06 UTC
Vent 8 kt de ouest/nord-ouest
Visibilité 10 km ou plus
Nuages épars à une hauteur de 2000 ft

TAF: LIPY 300500Z 3006/0106 30008KT 9999 SCT020

Observations et prévisions météorologiques de plus de 4000 aéroports (messages METAR et TAF).

Les stations disponibles sont représentées par des disques jaunes et rouges sur la carte.

Passer la souris dessus pour voir le nom de la station.

Cliquer dessus pour voir les observations et prévisions météorologiques.

Pour changer de carte: cliquez sur les boutons verts avec une croix noire pour zoomer, sur le bouton vert avec un tiret pour effectuer un zoom arrière, ou sur les flèches vertes pour les cartes adjacentes.


METAR-TAF: